createdAt,value
2022-10-01T00:01:41.180Z,98438.69
2022-10-01T00:04:07.637Z,98444.63
2022-10-01T00:06:34.020Z,98439.13
2022-10-01T00:09:00.424Z,98444.19
2022-10-01T00:11:26.854Z,98440.56
2022-10-01T00:13:54.044Z,98442.19
2022-10-01T00:16:22.133Z,98440.97
2022-10-01T00:18:49.005Z,98441.38
2022-10-01T00:21:16.890Z,98433.28
2022-10-01T00:23:43.409Z,98428.00
2022-10-01T00:26:14.786Z,98424.13
2022-10-01T00:28:41.986Z,98422.94
2022-10-01T00:31:08.995Z,98418.25
2022-10-01T00:33:36.690Z,98410.34
2022-10-01T00:36:04.038Z,98417.25
2022-10-01T00:38:30.440Z,98408.31
2022-10-01T00:40:57.214Z,98410.75
2022-10-01T00:43:24.447Z,98406.91
2022-10-01T00:45:51.478Z,98415.44
2022-10-01T00:48:18.021Z,98408.16
2022-10-01T00:50:45.037Z,98410.78
2022-10-01T00:53:12.316Z,98412.41
2022-10-01T00:55:43.993Z,98411.38
2022-10-01T00:58:12.003Z,98406.09
2022-10-01T01:00:39.209Z,98408.56
2022-10-01T01:03:05.865Z,98402.03
2022-10-01T01:05:32.406Z,98395.78
2022-10-01T01:08:02.877Z,98392.72
2022-10-01T01:10:51.350Z,98384.63
2022-10-01T01:13:42.283Z,98376.50
2022-10-01T01:16:35.375Z,98384.03
2022-10-01T01:19:03.837Z,98383.63
2022-10-01T01:21:52.998Z,98381.41
2022-10-01T01:24:25.478Z,98374.72
2022-10-01T01:27:00.606Z,98371.84
2022-10-01T01:29:38.271Z,98374.28
2022-10-01T01:32:13.961Z,98370.66
2022-10-01T01:34:43.426Z,98365.34
2022-10-01T01:37:12.335Z,98358.44
2022-10-01T01:39:41.377Z,98360.66
2022-10-01T01:42:10.314Z,98360.66
2022-10-01T01:44:39.629Z,98356.19
2022-10-01T01:47:07.498Z,98357.00
2022-10-01T01:49:34.297Z,98349.88
2022-10-01T01:52:13.431Z,98340.16
2022-10-01T01:54:40.788Z,98347.88
2022-10-01T01:57:08.387Z,98346.66
2022-10-01T01:59:35.455Z,98331.78
2022-10-01T02:02:02.316Z,98328.16
2022-10-01T02:04:37.664Z,98318.41
2022-10-01T02:07:18.281Z,98325.31
2022-10-01T02:10:03.289Z,98315.31
2022-10-01T02:12:32.774Z,98314.34
2022-10-01T02:15:13.885Z,98317.56
2022-10-01T02:17:50.520Z,98320.84
2022-10-01T02:20:18.277Z,98317.75
2022-10-01T02:23:03.608Z,98311.25
2022-10-01T02:25:34.591Z,98307.41
2022-10-01T02:28:07.433Z,98311.66
2022-10-01T02:30:37.493Z,98308.63
2022-10-01T02:33:05.353Z,98309.84
2022-10-01T02:35:33.809Z,98305.34
2022-10-01T02:38:01.463Z,98292.72
2022-10-01T02:40:31.038Z,98297.81
2022-10-01T02:43:00.924Z,98290.31
2022-10-01T02:45:27.621Z,98286.41
2022-10-01T02:47:58.038Z,98278.28
2022-10-01T02:50:27.166Z,98269.91
2022-10-01T02:52:58.592Z,98278.25
2022-10-01T02:55:28.687Z,98271.13
2022-10-01T02:57:55.627Z,98267.03
2022-10-01T03:00:22.026Z,98261.34
2022-10-01T03:02:49.058Z,98262.78
2022-10-01T03:05:16.223Z,98256.25
2022-10-01T03:07:43.592Z,98255.03
2022-10-01T03:10:10.667Z,98251.16
2022-10-01T03:12:37.613Z,98263.13
2022-10-01T03:15:04.842Z,98259.28
2022-10-01T03:17:31.289Z,98260.47
2022-10-01T03:19:57.694Z,98261.88
2022-10-01T03:22:24.191Z,98257.19
2022-10-01T03:24:51.311Z,98272.03
2022-10-01T03:27:18.330Z,98278.38
2022-10-01T03:29:45.079Z,98276.75
2022-10-01T03:32:12.060Z,98268.59
2022-10-01T03:34:38.612Z,98271.22
2022-10-01T03:37:05.499Z,98265.13
2022-10-01T03:39:32.385Z,98268.00
2022-10-01T03:41:58.849Z,98258.22
2022-10-01T03:44:25.352Z,98253.34
2022-10-01T03:46:51.964Z,98251.91
2022-10-01T03:49:18.398Z,98247.66
2022-10-01T03:51:45.133Z,98248.69
2022-10-01T03:54:11.757Z,98245.66
2022-10-01T03:56:40.862Z,98238.13
2022-10-01T03:59:07.292Z,98243.81
2022-10-01T04:01:34.014Z,98246.91
2022-10-01T04:04:00.912Z,98246.50
2022-10-01T04:06:27.330Z,98243.06
2022-10-01T04:08:53.815Z,98239.78
2022-10-01T04:11:20.292Z,98247.13
2022-10-01T04:13:46.756Z,98253.44
2022-10-01T04:16:13.450Z,98240.19
2022-10-01T04:18:40.063Z,98237.78
2022-10-01T04:21:06.664Z,98231.69
2022-10-01T04:23:33.162Z,98224.56
2022-10-01T04:26:01.018Z,98224.56
2022-10-01T04:28:27.628Z,98227.41
2022-10-01T04:31:14.154Z,98222.53
2022-10-01T04:33:41.087Z,98226.41
2022-10-01T04:36:07.590Z,98220.72
2022-10-01T04:38:34.195Z,98211.16
2022-10-01T04:41:00.639Z,98211.16
2022-10-01T04:43:27.155Z,98216.66
2022-10-01T04:45:53.568Z,98215.88
2022-10-01T04:48:20.057Z,98209.78
2022-10-01T04:50:46.470Z,98211.56
2022-10-01T04:53:12.961Z,98203.88
2022-10-01T04:55:39.501Z,98203.06
2022-10-01T04:58:05.898Z,98194.09
2022-10-01T05:00:32.383Z,98191.25
2022-10-01T05:02:58.881Z,98193.69
2022-10-01T05:05:27.253Z,98175.97
2022-10-01T05:07:53.677Z,98180.47
2022-10-01T05:10:21.975Z,98176.19
2022-10-01T05:12:48.887Z,98176.19
2022-10-01T05:15:16.089Z,98178.03
2022-10-01T05:17:43.065Z,98171.09
2022-10-01T05:20:15.556Z,98183.31
2022-10-01T05:22:41.950Z,98191.25
2022-10-01T05:25:08.567Z,98191.25
2022-10-01T05:27:40.401Z,98206.09
2022-10-01T05:30:08.392Z,98203.22
2022-10-01T05:32:35.313Z,98209.13
2022-10-01T05:35:01.817Z,98199.38
2022-10-01T05:37:28.276Z,98200.19
2022-10-01T05:39:54.694Z,98199.97
2022-10-01T05:42:21.246Z,98203.41
2022-10-01T05:44:49.038Z,98195.28
2022-10-01T05:47:16.159Z,98195.28
2022-10-01T05:49:44.496Z,98202.41
2022-10-01T05:52:11.577Z,98202.41
2022-10-01T05:54:38.090Z,98197.13
2022-10-01T05:57:05.152Z,98201.00
2022-10-01T05:59:32.162Z,98200.41
2022-10-01T06:01:59.072Z,98196.09
2022-10-01T06:04:25.640Z,98188.97
2022-10-01T06:06:53.128Z,98180.06
2022-10-01T06:09:19.571Z,98179.03
2022-10-01T06:11:48.107Z,98182.47
2022-10-01T06:14:14.783Z,98176.16
2022-10-01T06:16:41.297Z,98177.81
2022-10-01T06:19:07.787Z,98168.22
2022-10-01T06:21:34.455Z,98173.50
2022-10-01T06:24:01.295Z,98175.34
2022-10-01T06:26:28.585Z,98171.31
2022-10-01T06:28:55.032Z,98178.63
2022-10-01T06:31:22.004Z,98172.75
2022-10-01T06:33:48.576Z,98175.97
2022-10-01T06:36:15.094Z,98163.56
2022-10-01T06:38:42.962Z,98179.44
2022-10-01T06:41:09.718Z,98183.91
2022-10-01T06:43:36.283Z,98180.88
2022-10-01T06:46:03.983Z,98183.94
2022-10-01T06:48:31.416Z,98200.81
2022-10-01T06:50:58.590Z,98190.25
2022-10-01T06:53:26.590Z,98192.88
2022-10-01T06:55:53.110Z,98190.88
2022-10-01T06:58:21.169Z,98208.75
2022-10-01T07:00:50.574Z,98204.25
2022-10-01T07:03:18.875Z,98184.72
2022-10-01T07:05:45.359Z,98166.84
2022-10-01T07:08:12.018Z,98153.16
2022-10-01T07:10:39.664Z,98140.56
2022-10-01T07:13:07.617Z,98137.69
2022-10-01T07:15:34.364Z,98134.06
2022-10-01T07:18:01.266Z,98147.06
2022-10-01T07:20:27.857Z,98170.44
2022-10-01T07:22:58.453Z,98170.44
2022-10-01T07:25:25.638Z,98158.44
2022-10-01T07:27:59.658Z,98173.09
2022-10-01T07:30:26.708Z,98189.53
2022-10-01T07:32:54.279Z,98189.34
2022-10-01T07:35:21.267Z,98186.72
2022-10-01T07:37:48.645Z,98198.91
2022-10-01T07:40:18.215Z,98199.50
2022-10-01T07:42:54.804Z,98200.28
2022-10-01T07:45:22.283Z,98185.44
2022-10-01T07:47:59.147Z,98196.66
2022-10-01T07:50:26.409Z,98190.34
2022-10-01T07:52:53.324Z,98194.81
2022-10-01T07:55:20.331Z,98189.31
2022-10-01T07:57:51.250Z,98177.09
2022-10-01T08:00:17.855Z,98171.19
2022-10-01T08:02:48.695Z,98169.34
2022-10-01T08:05:18.050Z,98141.50
2022-10-01T08:07:45.433Z,98115.47
2022-10-01T08:10:12.119Z,98112.41
2022-10-01T08:12:38.630Z,98145.53
2022-10-01T08:15:09.751Z,98156.50
2022-10-01T08:17:37.702Z,98146.53
2022-10-01T08:20:04.970Z,98154.84
2022-10-01T08:22:31.430Z,98169.50
2022-10-01T08:24:57.950Z,98177.41
2022-10-01T08:27:25.246Z,98182.63
2022-10-01T08:29:51.965Z,98193.59
2022-10-01T08:32:18.396Z,98183.38
2022-10-01T08:34:44.931Z,98187.81
2022-10-01T08:37:11.312Z,98193.66
2022-10-01T08:39:37.900Z,98181.41
2022-10-01T08:42:08.413Z,98154.06
2022-10-01T08:44:43.104Z,98161.56
2022-10-01T08:47:33.879Z,98163.19
2022-10-01T08:50:03.469Z,98160.38
2022-10-01T08:52:32.218Z,98159.91
2022-10-01T08:55:07.241Z,98162.00
2022-10-01T08:57:42.329Z,98170.34
2022-10-01T09:00:13.492Z,98181.16
2022-10-01T09:02:41.364Z,98181.97
2022-10-01T09:05:17.310Z,98178.50
2022-10-01T09:07:57.369Z,98185.81
2022-10-01T09:10:32.970Z,98184.13
2022-10-01T09:13:04.721Z,98194.88
2022-10-01T09:15:45.965Z,98191.00
2022-10-01T09:18:32.559Z,98199.13
2022-10-01T09:20:59.303Z,98193.16
2022-10-01T09:23:29.918Z,98202.09
2022-10-01T09:26:00.138Z,98200.78
2022-10-01T09:28:31.222Z,98194.41
2022-10-01T09:31:07.139Z,98193.97
2022-10-01T09:33:36.314Z,98187.41
2022-10-01T09:36:11.077Z,98196.41
2022-10-01T09:38:42.049Z,98191.91
2022-10-01T09:41:10.391Z,98186.59
2022-10-01T09:43:38.289Z,98205.38
2022-10-01T09:46:13.608Z,98190.28
2022-10-01T09:48:59.084Z,98206.78
2022-10-01T09:51:28.883Z,98189.19
2022-10-01T09:54:24.492Z,98199.56
2022-10-01T09:56:58.606Z,98191.75
2022-10-01T09:59:31.281Z,98184.56
2022-10-01T10:02:00.892Z,98181.13
2022-10-01T10:04:27.512Z,98183.25
2022-10-01T10:07:05.249Z,98191.34
2022-10-01T10:09:33.006Z,98192.44
2022-10-01T10:11:59.563Z,98189.03
2022-10-01T10:14:33.906Z,98196.22
2022-10-01T10:17:26.831Z,98198.03
2022-10-01T10:19:53.480Z,98194.03
2022-10-01T10:22:26.994Z,98202.72
2022-10-01T10:24:54.393Z,98206.53
2022-10-01T10:27:25.124Z,98198.94
2022-10-01T10:30:00.678Z,98185.78
2022-10-01T10:32:27.664Z,98195.72
2022-10-01T10:35:02.076Z,98199.09
2022-10-01T10:37:31.076Z,98202.69
2022-10-01T10:39:58.237Z,98200.16
2022-10-01T10:42:25.158Z,98199.34
2022-10-01T10:44:52.815Z,98212.06
2022-10-01T10:47:20.695Z,98215.28
2022-10-01T10:49:56.860Z,98220.75
2022-10-01T10:52:29.751Z,98222.13
2022-10-01T10:54:57.389Z,98222.13
2022-10-01T10:57:29.992Z,98244.31
2022-10-01T10:59:56.361Z,98240.34
2022-10-01T11:02:25.322Z,98239.41
2022-10-01T11:04:53.532Z,98242.06
2022-10-01T11:07:21.656Z,98253.38
2022-10-01T11:10:00.527Z,98259.88
2022-10-01T11:12:57.324Z,98240.09
2022-10-01T11:15:43.239Z,98258.91
2022-10-01T11:18:10.597Z,98247.72
2022-10-01T11:20:40.109Z,98257.16
2022-10-01T11:23:16.254Z,98282.69
2022-10-01T11:25:49.620Z,98265.56
2022-10-01T11:28:28.527Z,98264.41
2022-10-01T11:31:07.426Z,98275.25
2022-10-01T11:33:44.793Z,98278.41
2022-10-01T11:36:17.245Z,98277.78
2022-10-01T11:38:50.481Z,98287.47
2022-10-01T11:41:18.972Z,98291.38
2022-10-01T11:43:51.393Z,98303.53
2022-10-01T11:46:32.188Z,98299.75
2022-10-01T11:49:03.102Z,98304.59
2022-10-01T11:51:34.739Z,98312.00
2022-10-01T11:54:05.313Z,98300.94
2022-10-01T11:56:52.810Z,98308.66
2022-10-01T11:59:24.765Z,98306.00
2022-10-01T12:01:57.495Z,98300.81
2022-10-01T12:04:26.904Z,98294.94
2022-10-01T12:07:05.385Z,98302.53
2022-10-01T12:09:32.411Z,98300.13
2022-10-01T12:12:01.226Z,98296.63
2022-10-01T12:14:41.270Z,98303.34
2022-10-01T12:17:16.868Z,98298.97
2022-10-01T12:19:47.477Z,98298.06
2022-10-01T12:22:15.265Z,98293.69
2022-10-01T12:24:43.221Z,98304.22
2022-10-01T12:27:29.198Z,98302.63
2022-10-01T12:30:08.131Z,98306.53
2022-10-01T12:32:43.779Z,98310.91
2022-10-01T12:35:23.240Z,98305.94
2022-10-01T12:38:09.224Z,98290.66
2022-10-01T12:40:54.546Z,98297.16
2022-10-01T12:43:35.239Z,98287.09
2022-10-01T12:46:25.726Z,98279.56
2022-10-01T12:48:59.633Z,98284.50
2022-10-01T12:51:37.051Z,98281.66
2022-10-01T12:54:22.163Z,98293.09
2022-10-01T12:56:55.053Z,98300.59
2022-10-01T12:59:30.125Z,98306.50
2022-10-01T13:02:03.201Z,98309.16
2022-10-01T13:04:49.190Z,98305.94
2022-10-01T13:07:31.597Z,98307.41
2022-10-01T13:09:57.954Z,98312.25
2022-10-01T13:12:28.694Z,98328.06
2022-10-01T13:14:55.897Z,98321.75
2022-10-01T13:17:39.541Z,98330.00
2022-10-01T13:20:06.044Z,98325.66
2022-10-01T13:22:39.561Z,98328.59
2022-10-01T13:25:22.747Z,98320.88
2022-10-01T13:27:49.347Z,98323.06
2022-10-01T13:30:23.545Z,98319.22
2022-10-01T13:32:51.881Z,98321.78
2022-10-01T13:35:31.597Z,98319.47
2022-10-01T13:38:01.102Z,98316.34
2022-10-01T13:40:27.577Z,98321.78
2022-10-01T13:43:14.307Z,98316.00
2022-10-01T13:45:43.043Z,98326.03
2022-10-01T13:48:23.389Z,98327.97
2022-10-01T13:50:55.911Z,98337.19
2022-10-01T13:53:25.435Z,98332.25
2022-10-01T13:55:53.818Z,98334.41
2022-10-01T13:58:43.640Z,98326.41
2022-10-01T14:01:20.024Z,98333.88
2022-10-01T14:03:49.740Z,98343.53
2022-10-01T14:06:24.389Z,98346.91
2022-10-01T14:09:05.815Z,98340.19
2022-10-01T14:11:53.371Z,98343.91
2022-10-01T14:14:41.944Z,98352.97
2022-10-01T14:17:09.905Z,98349.72
2022-10-01T14:19:37.027Z,98356.47
2022-10-01T14:22:03.390Z,98359.13
2022-10-01T14:24:29.846Z,98354.41
2022-10-01T14:27:05.089Z,98360.09
2022-10-01T14:29:41.555Z,98357.44
2022-10-01T14:32:25.430Z,98353.72
2022-10-01T14:34:59.978Z,98349.75
2022-10-01T14:37:27.921Z,98355.56
2022-10-01T14:40:01.614Z,98369.25
2022-10-01T14:42:28.105Z,98373.63
2022-10-01T14:44:54.531Z,98371.31
2022-10-01T14:47:25.469Z,98379.88
2022-10-01T14:49:53.744Z,98379.41
2022-10-01T14:52:22.120Z,98374.78
2022-10-01T14:54:51.395Z,98384.81
2022-10-01T14:57:26.504Z,98381.59
2022-10-01T14:59:53.299Z,98380.19
2022-10-01T15:02:21.101Z,98382.50
2022-10-01T15:04:48.840Z,98373.16
2022-10-01T15:07:17.024Z,98372.56
2022-10-01T15:09:45.406Z,98367.22
2022-10-01T15:12:12.935Z,98361.09
2022-10-01T15:14:40.356Z,98338.41
2022-10-01T15:17:07.602Z,98370.34
2022-10-01T15:19:41.147Z,98391.06
2022-10-01T15:22:08.975Z,98380.41
2022-10-01T15:24:35.370Z,98391.41
2022-10-01T15:27:02.108Z,98388.16
2022-10-01T15:29:28.539Z,98393.47
2022-10-01T15:31:56.716Z,98393.25
2022-10-01T15:34:25.268Z,98402.84
2022-10-01T15:36:52.347Z,98412.91
2022-10-01T15:39:27.980Z,98403.53
2022-10-01T15:41:54.963Z,98417.28
2022-10-01T15:44:38.528Z,98421.81
2022-10-01T15:47:34.797Z,98433.25
2022-10-01T15:50:04.334Z,98425.84
2022-10-01T15:52:51.689Z,98432.00
2022-10-01T15:55:24.198Z,98438.94
2022-10-01T15:57:54.399Z,98443.88
2022-10-01T16:00:22.610Z,98452.91
2022-10-01T16:02:49.316Z,98452.28
2022-10-01T16:05:18.275Z,98447.41
2022-10-01T16:07:46.787Z,98443.56
2022-10-01T16:10:15.277Z,98456.31
2022-10-01T16:12:42.296Z,98461.25
2022-10-01T16:15:23.814Z,98460.31
2022-10-01T16:17:54.762Z,98471.63
2022-10-01T16:20:45.527Z,98472.63
2022-10-01T16:23:35.619Z,98484.31
2022-10-01T16:26:06.144Z,98493.53
2022-10-01T16:28:34.058Z,98500.72
2022-10-01T16:31:01.482Z,98497.25
2022-10-01T16:33:28.472Z,98497.59
2022-10-01T16:36:12.818Z,98494.72
2022-10-01T16:38:39.332Z,98503.53
2022-10-01T16:41:05.873Z,98499.03
2022-10-01T16:43:32.579Z,98494.50
2022-10-01T16:45:59.291Z,98505.34
2022-10-01T16:48:25.856Z,98510.66
2022-10-01T16:50:53.820Z,98511.72
2022-10-01T16:53:20.295Z,98508.00
2022-10-01T16:55:47.108Z,98514.75
2022-10-01T16:58:13.678Z,98517.41
2022-10-01T17:00:40.241Z,98519.00
2022-10-01T17:03:09.050Z,98520.28
2022-10-01T17:05:36.965Z,98528.84
2022-10-01T17:08:10.834Z,98524.56
2022-10-01T17:10:39.039Z,98534.16
2022-10-01T17:13:12.016Z,98535.19
2022-10-01T17:15:38.580Z,98537.06
2022-10-01T17:18:05.182Z,98537.84
2022-10-01T17:20:31.583Z,98547.44
2022-10-01T17:22:58.632Z,98556.03
2022-10-01T17:25:30.908Z,98570.94
2022-10-01T17:27:57.854Z,98575.44
2022-10-01T17:30:24.375Z,98578.91
2022-10-01T17:32:51.141Z,98579.97
2022-10-01T17:35:17.532Z,98594.06
2022-10-01T17:37:43.865Z,98599.16
2022-10-01T17:40:10.792Z,98608.16
2022-10-01T17:42:37.141Z,98624.13
2022-10-01T17:45:05.486Z,98621.47
2022-10-01T17:47:31.971Z,98621.47
2022-10-01T17:49:58.409Z,98626.78
2022-10-01T17:52:24.839Z,98639.03
2022-10-01T17:54:51.265Z,98639.84
2022-10-01T17:57:17.650Z,98636.59
2022-10-01T17:59:44.028Z,98641.31
2022-10-01T18:02:36.769Z,98649.91
2022-10-01T18:04:58.788Z,98658.06
2022-10-01T18:07:25.595Z,98664.44
2022-10-01T18:09:53.741Z,98665.72
2022-10-01T18:12:20.175Z,98663.25
2022-10-01T18:14:46.583Z,98672.25
2022-10-01T18:17:12.958Z,98676.78
2022-10-01T18:19:53.315Z,98682.53
2022-10-01T18:22:21.067Z,98687.25
2022-10-01T18:24:47.436Z,98693.81
2022-10-01T18:27:13.900Z,98696.47
2022-10-01T18:29:40.420Z,98706.50
2022-10-01T18:32:06.749Z,98705.69
2022-10-01T18:34:38.312Z,98714.69
2022-10-01T18:37:23.748Z,98714.13
2022-10-01T18:39:56.443Z,98717.59
2022-10-01T18:42:34.202Z,98717.78
2022-10-01T18:45:02.159Z,98728.88
2022-10-01T18:47:34.585Z,98737.03
2022-10-01T18:50:00.968Z,98744.19
2022-10-01T18:52:35.332Z,98757.25
2022-10-01T18:55:04.685Z,98761.56
2022-10-01T18:57:31.065Z,98765.25
2022-10-01T19:00:06.899Z,98775.88
2022-10-01T19:02:50.270Z,98768.13
2022-10-01T19:05:35.744Z,98774.25
2022-10-01T19:08:13.731Z,98773.66
2022-10-01T19:10:42.029Z,98785.91
2022-10-01T19:13:13.671Z,98784.06
2022-10-01T19:15:40.056Z,98789.38
2022-10-01T19:18:15.514Z,98789.38
2022-10-01T19:20:47.264Z,98797.13
2022-10-01T19:23:26.612Z,98806.75
2022-10-01T19:26:10.967Z,98802.03
2022-10-01T19:28:53.599Z,98803.44
2022-10-01T19:31:20.571Z,98811.00
2022-10-01T19:33:50.670Z,98799.53
2022-10-01T19:36:24.352Z,98811.81
2022-10-01T19:38:51.283Z,98816.09
2022-10-01T19:41:28.135Z,98814.25
2022-10-01T19:44:00.552Z,98808.50
2022-10-01T19:46:27.272Z,98818.09
2022-10-01T19:49:01.682Z,98824.22
2022-10-01T19:51:39.291Z,98833.03
2022-10-01T19:54:11.657Z,98839.16
2022-10-01T19:56:38.402Z,98848.78
2022-10-01T19:59:11.411Z,98847.97
2022-10-01T20:01:39.067Z,98852.44
2022-10-01T20:04:11.364Z,98859.41
2022-10-01T20:06:40.035Z,98867.97
2022-10-01T20:09:15.613Z,98869.41
2022-10-01T20:12:00.916Z,98877.97
2022-10-01T20:14:55.096Z,98883.66
2022-10-01T20:17:37.561Z,98882.63
2022-10-01T20:20:04.013Z,98888.56
2022-10-01T20:22:31.042Z,98889.38
2022-10-01T20:25:06.710Z,98899.19
2022-10-01T20:27:45.793Z,98894.91
2022-10-01T20:30:17.730Z,98902.28
2022-10-01T20:32:53.162Z,98901.69
2022-10-01T20:35:30.461Z,98908.25
2022-10-01T20:38:35.697Z,98910.31
2022-10-01T20:41:09.369Z,98918.50
2022-10-01T20:43:56.364Z,98918.72
2022-10-01T20:46:38.476Z,98921.56
2022-10-01T20:49:10.995Z,98927.91
2022-10-01T20:51:42.834Z,98923.88
2022-10-01T20:54:10.800Z,98922.22
2022-10-01T20:56:40.983Z,98916.06
2022-10-01T20:59:13.626Z,98914.22
2022-10-01T21:01:42.470Z,98911.00
2022-10-01T21:04:22.011Z,98923.66
2022-10-01T21:06:54.983Z,98927.78
2022-10-01T21:09:28.575Z,98929.44
2022-10-01T21:12:15.222Z,98925.56
2022-10-01T21:15:01.399Z,98946.44
2022-10-01T21:17:35.607Z,98947.47
2022-10-01T21:20:11.569Z,98950.13
2022-10-01T21:22:51.296Z,98949.31
2022-10-01T21:25:20.670Z,98952.97
2022-10-01T21:27:53.235Z,98961.78
2022-10-01T21:30:20.747Z,98964.44
2022-10-01T21:33:05.836Z,98974.06
2022-10-01T21:35:38.478Z,98976.91
2022-10-01T21:38:10.525Z,98988.56
2022-10-01T21:40:48.839Z,98988.97
2022-10-01T21:43:22.957Z,98988.16
2022-10-01T21:46:01.518Z,98990.00
2022-10-01T21:48:45.924Z,99005.13
2022-10-01T21:51:27.725Z,98992.66
2022-10-01T21:54:12.845Z,98997.16
2022-10-01T21:56:50.282Z,99002.88
2022-10-01T21:59:31.765Z,98994.31
2022-10-01T22:02:04.718Z,98993.69
2022-10-01T22:04:46.420Z,99004.13
2022-10-01T22:07:12.799Z,99012.13
2022-10-01T22:09:43.347Z,99012.13
2022-10-01T22:12:10.806Z,99011.06
2022-10-01T22:14:38.603Z,99012.50
2022-10-01T22:17:08.571Z,99008.00
2022-10-01T22:19:37.253Z,99003.50
2022-10-01T22:22:09.676Z,99011.47
2022-10-01T22:24:43.548Z,99008.81
2022-10-01T22:27:27.912Z,99006.16
2022-10-01T22:30:02.251Z,99010.44
2022-10-01T22:32:31.492Z,99013.09
2022-10-01T22:35:00.954Z,99018.19
2022-10-01T22:37:47.551Z,99029.69
2022-10-01T22:40:16.778Z,99024.97
2022-10-01T22:42:46.575Z,99025.56
2022-10-01T22:45:13.893Z,99018.19
2022-10-01T22:47:51.709Z,99034.16
2022-10-01T22:50:36.405Z,99041.09
2022-10-01T22:53:22.883Z,99052.75
2022-10-01T22:55:56.614Z,99058.06
2022-10-01T22:58:32.125Z,99065.22
2022-10-01T23:01:04.686Z,99074.00
2022-10-01T23:03:34.205Z,99071.13
2022-10-01T23:06:14.693Z,99072.16
2022-10-01T23:08:47.181Z,99064.00
2022-10-01T23:11:22.819Z,99066.66
2022-10-01T23:13:58.914Z,99079.94
2022-10-01T23:16:41.538Z,99088.72
2022-10-01T23:19:23.490Z,99090.78
2022-10-01T23:21:54.478Z,99091.81
2022-10-01T23:24:39.788Z,99087.50
2022-10-01T23:27:15.439Z,99097.13
2022-10-01T23:29:47.821Z,99098.75
2022-10-01T23:32:31.810Z,99100.81
2022-10-01T23:34:58.155Z,99091.81
2022-10-01T23:37:43.467Z,99089.16
2022-10-01T23:40:13.045Z,99084.84
2022-10-01T23:42:58.081Z,99088.53
2022-10-01T23:45:27.513Z,99090.19
2022-10-01T23:48:00.013Z,99090.19
2022-10-01T23:50:35.066Z,99112.25
2022-10-01T23:53:07.761Z,99113.06
2022-10-01T23:56:04.448Z,99104.88
2022-10-01T23:58:35.348Z,99110.00
